Time;durP1;ratioP1;P1;durP2;ratioP2;P2;SDS_P1;SDS_P2;PMS_P1;PMS_P2;Temp;Humidity;BMP_temperature;BMP_pressure;BME280_temperature;BME280_humidity;BME280_pressure;Samples;Min_cycle;Max_cycle;Signal;HPM_P1;HPM_P2
2022/06/29 00:03:59;;;;;;;6.63;5.97;;;;;;;24.35;51.17;97844.09;8415082;28;20523;-77
2022/06/29 00:08:02;;;;;;;6.87;6.20;;;;;;;24.14;52.10;97847.16;8415679;28;20317;-77
2022/06/29 00:12:10;;;;;;;8.87;6.13;;;;;;;24.12;52.18;97837.69;8415400;28;20449;-77
2022/06/29 00:16:16;;;;;;;6.83;5.87;;;;;;;24.27;51.72;97822.88;8415406;28;20299;-77
2022/06/29 00:20:19;;;;;;;7.60;6.40;;;;;;;24.26;52.06;97817.78;8414998;28;20241;-78
2022/06/29 00:24:21;;;;;;;6.87;6.13;;;;;;;24.20;52.02;97820.06;8414829;28;20231;-75
2022/06/29 00:28:24;;;;;;;6.63;5.93;;;;;;;24.20;52.39;97820.06;8415638;28;20280;-77
2022/06/29 00:32:30;;;;;;;6.90;6.30;;;;;;;24.23;52.47;97808.31;8415167;28;20231;-77
2022/06/29 00:36:33;;;;;;;8.27;6.30;;;;;;;24.26;52.92;97815.13;8415001;28;20298;-77
2022/06/29 00:40:36;;;;;;;6.60;6.10;;;;;;;24.04;53.28;97827.06;8414611;28;20232;-77
2022/06/29 00:44:39;;;;;;;8.40;6.17;;;;;;;23.96;53.14;97820.75;8413753;28;20239;-77
2022/06/29 00:48:43;;;;;;;8.37;6.60;;;;;;;24.11;52.88;97818.34;8414136;28;20243;-77
2022/06/29 00:52:46;;;;;;;8.83;6.10;;;;;;;23.72;54.74;97818.75;8414195;28;20222;-77
2022/06/29 00:56:50;;;;;;;9.07;6.17;;;;;;;24.03;53.49;97823.59;8413786;28;20241;-77
2022/06/29 01:00:53;;;;;;;6.60;5.80;;;;;;;23.92;53.95;97814.09;8413905;28;20240;-77
2022/06/29 01:04:57;;;;;;;8.73;5.97;;;;;;;23.90;54.04;97815.25;8413919;28;20239;-77
2022/06/29 01:09:00;;;;;;;8.87;6.33;;;;;;;23.69;54.66;97816.41;8412979;28;20234;-77
2022/06/29 01:13:03;;;;;;;6.57;5.97;;;;;;;23.74;54.48;97813.28;8413959;28;20223;-77
2022/06/29 01:17:05;;;;;;;8.70;6.20;;;;;;;23.86;54.18;97822.69;8413964;28;20448;-77
2022/06/29 01:21:11;;;;;;;8.10;6.43;;;;;;;23.88;54.00;97818.06;8413778;28;20224;-78
2022/06/29 01:25:16;;;;;;;6.60;6.00;;;;;;;23.98;53.75;97824.06;8413605;28;20529;-77
2022/06/29 01:29:18;;;;;;;6.77;6.07;;;;;;;24.02;54.09;97827.22;8413663;28;20543;-77
2022/06/29 01:33:21;;;;;;;8.10;6.27;;;;;;;24.05;53.79;97823.44;8413566;28;20524;-77
2022/06/29 01:37:24;;;;;;;6.80;6.20;;;;;;;23.97;54.40;97818.91;8413133;28;20227;-77
2022/06/29 01:41:28;;;;;;;7.50;6.63;;;;;;;23.97;54.29;97824.22;8413366;28;20424;-76
2022/06/29 01:45:31;;;;;;;6.63;6.00;;;;;;;24.02;54.28;97819.28;8413270;28;20234;-77
2022/06/29 01:49:34;;;;;;;6.60;5.87;;;;;;;24.02;54.69;97811.34;8413405;28;20520;-77
2022/06/29 01:53:37;;;;;;;7.33;6.63;;;;;;;23.95;55.05;97812.97;8413044;28;20235;-77
2022/06/29 01:57:41;;;;;;;7.40;6.70;;;;;;;23.94;55.42;97809.50;8413110;28;20234;-77
2022/06/29 02:01:45;;;;;;;7.30;6.67;;;;;;;23.87;55.37;97799.69;8412937;28;20238;-77
2022/06/29 02:05:49;;;;;;;8.07;6.60;;;;;;;23.85;55.99;97799.03;8413089;28;20226;-77
2022/06/29 02:09:51;;;;;;;7.30;6.60;;;;;;;23.82;55.96;97797.53;8412817;28;20242;-77
2022/06/29 02:13:55;;;;;;;7.87;7.07;;;;;;;23.78;55.80;97798.81;8412558;28;20245;-77
2022/06/29 02:17:58;;;;;;;9.43;6.87;;;;;;;23.80;55.38;97797.69;8414514;28;20249;-77
2022/06/29 02:22:01;;;;;;;7.90;7.10;;;;;;;23.79;55.71;97787.25;8418847;28;20333;-77
2022/06/29 02:26:04;;;;;;;8.53;7.30;;;;;;;23.81;55.58;97799.31;8418657;28;20422;-77
2022/06/29 02:30:11;;;;;;;8.27;7.53;;;;;;;23.62;55.36;97791.56;8418586;28;20408;-77
2022/06/29 02:38:34;;;;;;;8.43;7.57;;;;;;;23.35;56.00;97790.72;8418241;28;20238;-77
2022/06/29 02:42:37;;;;;;;7.67;6.83;;;;;;;23.38;56.09;97779.00;8418169;28;20231;-77
2022/06/29 02:47:01;;;;;;;8.63;7.77;;;;;;;23.25;56.01;97770.66;8418059;28;20231;-77
2022/06/29 02:51:04;;;;;;;7.90;6.97;;;;;;;23.50;56.00;97776.97;8418038;28;20239;-77
2022/06/29 02:55:08;;;;;;;7.93;7.23;;;;;;;23.43;55.74;97784.66;8418000;28;20235;-77
2022/06/29 02:59:11;;;;;;;9.00;7.13;;;;;;;23.62;55.45;97778.34;8417476;28;20228;-77
2022/06/29 03:03:15;;;;;;;9.13;7.20;;;;;;;23.67;55.83;97772.63;8417495;28;20230;-77
2022/06/29 03:07:17;;;;;;;10.67;7.93;;;;;;;23.66;55.80;97778.88;8417226;28;20244;-77
2022/06/29 03:11:20;;;;;;;9.13;7.53;;;;;;;23.65;55.82;97769.31;8417355;28;20417;-77
2022/06/29 03:15:25;;;;;;;9.13;8.23;;;;;;;23.79;55.19;97774.03;8416592;28;20435;-77
2022/06/29 03:19:29;;;;;;;9.47;8.57;;;;;;;23.80;55.33;97757.22;8417068;28;20296;-77
2022/06/29 03:23:32;;;;;;;8.90;8.00;;;;;;;23.72;55.94;97751.81;8416831;28;20240;-77
2022/06/29 03:27:35;;;;;;;8.50;7.60;;;;;;;23.77;56.00;97754.84;8416862;28;20235;-77
2022/06/29 03:31:38;;;;;;;10.67;8.43;;;;;;;23.77;55.73;97760.94;8416017;28;20514;-78
2022/06/29 03:35:43;;;;;;;9.67;8.70;;;;;;;23.76;55.74;97759.31;8416657;28;20542;-78
2022/06/29 03:39:45;;;;;;;8.10;7.40;;;;;;;23.74;55.42;97757.78;8416638;28;20236;-78
2022/06/29 03:43:48;;;;;;;10.27;8.70;;;;;;;23.73;55.37;97761.41;8416253;28;20227;-78
2022/06/29 03:47:51;;;;;;;8.77;7.93;;;;;;;23.78;55.06;97767.06;8416218;28;20232;-78
2022/06/29 03:51:56;;;;;;;8.80;8.00;;;;;;;23.66;55.22;97757.72;8415893;28;20226;-78
2022/06/29 03:55:58;;;;;;;8.80;8.03;;;;;;;23.71;55.04;97761.56;8415665;28;20228;-79
2022/06/29 04:00:01;;;;;;;10.43;8.00;;;;;;;23.78;55.07;97761.78;8415585;28;20235;-78
2022/06/29 04:04:06;;;;;;;8.50;7.70;;;;;;;23.83;55.16;97756.88;8415642;28;20230;-78
2022/06/29 04:08:11;;;;;;;8.63;7.90;;;;;;;23.85;54.43;97759.38;8415602;28;20246;-78
2022/06/29 04:12:14;;;;;;;8.47;7.77;;;;;;;23.80;54.37;97757.22;8415261;28;20227;-79
2022/06/29 04:16:16;;;;;;;8.77;7.97;;;;;;;23.78;54.70;97769.72;8414970;28;20232;-78
2022/06/29 04:24:40;;;;;;;8.87;7.90;;;;;;;23.36;56.24;97767.75;8415246;28;20518;-78
2022/06/29 04:28:43;;;;;;;9.43;8.60;;;;;;;23.26;57.11;97775.78;8415280;28;20239;-78
2022/06/29 04:32:46;;;;;;;11.23;8.60;;;;;;;23.33;56.51;97779.47;8415154;28;20224;-78
2022/06/29 04:36:51;;;;;;;9.77;8.10;;;;;;;23.31;56.97;97777.97;8415015;28;20252;-84
2022/06/29 04:40:55;;;;;;;10.30;8.90;;;;;;;23.25;57.04;97768.84;8414579;28;20522;-79
2022/06/29 04:44:58;;;;;;;9.73;8.70;;;;;;;23.12;57.44;97777.16;8414244;28;20229;-79
2022/06/29 04:49:02;;;;;;;9.00;8.10;;;;;;;23.20;57.22;97773.75;8414443;28;20331;-79
2022/06/29 04:53:05;;;;;;;9.57;8.23;;;;;;;23.21;57.18;97762.22;8414532;28;20224;-78
2022/06/29 04:57:09;;;;;;;8.80;7.87;;;;;;;23.38;56.59;97761.38;8414267;28;20233;-79
2022/06/29 05:01:11;;;;;;;9.37;8.57;;;;;;;23.06;57.83;97767.22;8414302;28;20227;-78
2022/06/29 05:05:14;;;;;;;8.40;7.53;;;;;;;23.51;56.52;97753.00;8414043;28;20238;-78
2022/06/29 05:09:17;;;;;;;8.70;7.80;;;;;;;23.20;57.50;97755.25;8413434;28;20447;-75
2022/06/29 05:13:22;;;;;;;9.07;7.70;;;;;;;23.12;57.86;97753.38;8391443;28;20325;-75
2022/06/29 05:17:25;;;;;;;8.53;7.60;;;;;;;23.22;57.66;97759.41;8380361;28;20249;-76
2022/06/29 05:21:28;;;;;;;8.47;7.60;;;;;;;23.12;57.58;97761.31;8380858;28;20421;-76
2022/06/29 05:25:31;;;;;;;10.07;7.90;;;;;;;23.05;57.68;97760.25;8380370;28;20266;-76
2022/06/29 05:29:35;;;;;;;10.37;7.87;;;;;;;23.09;57.30;97763.44;8380558;28;20231;-75
2022/06/29 05:33:38;;;;;;;8.70;7.80;;;;;;;23.03;57.92;97767.50;8380114;28;20231;-75
2022/06/29 05:37:41;;;;;;;8.93;7.47;;;;;;;23.16;57.62;97775.88;8380343;28;20263;-76
2022/06/29 05:41:43;;;;;;;8.20;7.47;;;;;;;23.05;57.93;97783.19;8384556;28;20227;-76
2022/06/29 05:45:48;;;;;;;8.70;7.03;;;;;;;23.37;57.02;97785.28;8413065;28;20238;-77
2022/06/29 05:49:50;;;;;;;10.67;7.67;;;;;;;23.19;57.68;97790.59;8412775;28;20246;-77
2022/06/29 05:53:53;;;;;;;8.70;7.80;;;;;;;23.28;57.50;97794.13;8416197;28;20427;-77
2022/06/29 05:57:56;;;;;;;9.83;8.10;;;;;;;23.49;56.74;97789.34;8419652;28;20228;-77
2022/06/29 06:02:00;;;;;;;7.47;6.77;;;;;;;23.50;56.91;97784.91;8419929;28;20234;-76
2022/06/29 06:06:03;;;;;;;7.30;6.60;;;;;;;23.72;56.13;97781.75;8419280;28;20226;-76
2022/06/29 06:10:06;;;;;;;8.93;6.90;;;;;;;23.94;55.35;97779.59;8419677;28;20223;-76
2022/06/29 06:14:09;;;;;;;8.30;6.80;;;;;;;24.08;55.71;97780.81;8419677;28;20539;-77
2022/06/29 06:18:13;;;;;;;9.03;6.90;;;;;;;24.13;55.48;97775.88;8419331;28;20232;-77
2022/06/29 06:22:16;;;;;;;7.70;6.90;;;;;;;24.02;55.49;97768.22;8419381;28;20223;-77
2022/06/29 06:26:19;;;;;;;8.40;6.40;;;;;;;24.08;55.93;97767.56;8419092;28;20243;-75
2022/06/29 06:30:22;;;;;;;7.97;6.77;;;;;;;24.00;55.30;97769.19;8418622;28;20228;-75
2022/06/29 06:34:26;;;;;;;11.17;6.77;;;;;;;23.75;55.79;97785.88;8418322;28;20227;-75
2022/06/29 06:38:29;;;;;;;6.97;6.33;;;;;;;23.63;56.60;97785.31;8418386;28;20322;-75
2022/06/29 06:42:32;;;;;;;10.57;7.13;;;;;;;23.48;57.09;97784.22;8418218;28;20234;-74
2022/06/29 06:46:35;;;;;;;7.53;6.30;;;;;;;23.40;57.31;97788.47;8418092;28;20257;-75
2022/06/29 06:50:39;;;;;;;8.87;6.77;;;;;;;23.29;57.33;97786.06;8418229;28;20233;-75
2022/06/29 06:54:49;;;;;;;7.37;6.20;;;;;;;23.31;57.81;97783.25;8418233;28;20227;-75
2022/06/29 06:58:52;;;;;;;6.57;5.93;;;;;;;23.29;57.93;97785.22;8418006;28;20226;-76
2022/06/29 07:02:56;;;;;;;9.70;6.23;;;;;;;23.19;58.57;97787.97;8414998;28;20227;-76
2022/06/29 07:07:01;;;;;;;9.57;6.40;;;;;;;23.33;57.90;97787.41;8417911;28;20231;-77
2022/06/29 07:11:09;;;;;;;6.93;6.33;;;;;;;23.25;57.72;97787.34;8417930;28;20293;-75
2022/06/29 07:15:11;;;;;;;6.90;6.30;;;;;;;23.17;58.14;97782.81;8417820;28;20230;-75
2022/06/29 07:19:14;;;;;;;6.67;6.03;;;;;;;23.51;57.09;97774.16;8417430;28;20230;-77
2022/06/29 07:23:18;;;;;;;10.97;6.43;;;;;;;23.62;57.45;97765.97;8417691;28;20227;-74
2022/06/29 07:27:21;;;;;;;6.93;6.20;;;;;;;23.50;57.88;97772.50;8417299;28;20231;-75
2022/06/29 07:31:24;;;;;;;7.87;6.47;;;;;;;23.93;56.33;97762.91;8416916;28;20246;-74
2022/06/29 07:35:27;;;;;;;16.07;7.53;;;;;;;23.96;56.04;97751.97;8409389;28;20259;-74
2022/06/29 07:39:31;;;;;;;6.53;5.73;;;;;;;24.09;55.87;97754.19;8383574;28;20561;-76
2022/06/29 07:43:47;;;;;;;7.60;6.30;;;;;;;24.47;54.89;97751.19;8405131;28;20226;-76
2022/06/29 07:47:51;;;;;;;11.20;5.50;;;;;;;25.14;53.08;97745.84;8416653;28;20236;-76
2022/06/29 07:51:54;;;;;;;6.63;5.93;;;;;;;25.47;52.49;97746.66;8416500;28;20232;-77
2022/06/29 07:55:58;;;;;;;5.83;5.23;;;;;;;26.18;50.60;97744.19;8416553;28;20538;-77
2022/06/29 08:00:01;;;;;;;7.43;5.30;;;;;;;26.46;50.30;97741.06;8416277;28;20229;-76
2022/06/29 08:04:04;;;;;;;8.23;5.30;;;;;;;26.75;49.54;97713.88;8415935;28;20223;-76
2022/06/29 08:08:08;;;;;;;7.03;5.60;;;;;;;26.94;49.65;97715.25;8416022;28;20504;-77
2022/06/29 08:12:12;;;;;;;5.20;4.80;;;;;;;27.36;49.02;97716.56;8415822;28;20332;-76
2022/06/29 08:16:15;;;;;;;5.03;4.43;;;;;;;27.66;47.39;97708.59;8414885;28;20245;-76
2022/06/29 08:20:18;;;;;;;6.60;4.90;;;;;;;28.03;47.05;97710.34;8415473;28;20303;-75
2022/06/29 08:24:20;;;;;;;5.53;4.80;;;;;;;28.21;46.41;97712.63;8415409;28;20439;-74
2022/06/29 08:28:25;;;;;;;5.67;4.60;;;;;;;28.29;45.66;97709.00;8414903;28;20239;-74
2022/06/29 08:32:28;;;;;;;6.33;4.50;;;;;;;28.44;45.26;97714.31;8415180;28;20241;-74
2022/06/29 08:36:30;;;;;;;6.90;3.80;;;;;;;28.05;45.11;97715.50;8414959;28;20240;-74
2022/06/29 08:40:51;;;;;;;6.70;3.53;;;;;;;28.58;44.11;97715.34;8414807;28;20227;-74
2022/06/29 08:44:56;;;;;;;7.13;4.37;;;;;;;27.83;45.42;97715.38;8414447;28;20239;-73
2022/06/29 08:48:59;;;;;;;5.77;3.90;;;;;;;28.25;43.94;97708.59;8414622;28;20231;-74
2022/06/29 08:53:03;;;;;;;6.93;3.50;;;;;;;27.45;45.46;97719.94;8407908;28;20227;-74
2022/06/29 08:57:06;;;;;;;6.97;3.87;;;;;;;27.44;46.94;97719.13;8401725;28;20430;-74
2022/06/29 09:01:11;;;;;;;6.37;3.77;;;;;;;27.69;47.46;97721.53;8381327;28;20249;-74
2022/06/29 09:05:14;;;;;;;6.20;4.53;;;;;;;27.25;46.56;97719.66;8381417;28;20238;-74
2022/06/29 09:09:16;;;;;;;6.37;4.30;;;;;;;27.20;48.24;97714.00;8381160;28;20238;-75
2022/06/29 09:13:25;;;;;;;6.73;4.50;;;;;;;26.37;48.76;97720.88;8380826;28;20230;-74
2022/06/29 09:17:32;;;;;;;9.23;4.70;;;;;;;26.00;49.67;97720.53;8381060;28;20426;-75
2022/06/29 09:21:45;;;;;;;4.93;4.00;;;;;;;25.97;50.07;97714.75;8380585;28;20305;-76
2022/06/29 09:25:47;;;;;;;6.53;4.70;;;;;;;25.78;50.71;97715.94;8380679;28;20291;-76
2022/06/29 09:29:50;;;;;;;8.27;4.60;;;;;;;25.50;51.87;97716.38;8379695;28;20238;-78
2022/06/29 09:33:55;;;;;;;8.10;5.33;;;;;;;25.57;51.39;97717.34;8380767;28;20231;-78
2022/06/29 09:38:22;;;;;;;7.80;4.83;;;;;;;25.74;51.79;97715.47;8380506;28;20523;-78
2022/06/29 09:42:27;;;;;;;5.77;4.60;;;;;;;25.79;51.55;97715.78;8390134;28;20227;-76
2022/06/29 09:46:30;;;;;;;5.80;4.40;;;;;;;25.45;51.07;97716.84;8413477;28;20246;-75
2022/06/29 09:50:35;;;;;;;6.20;4.70;;;;;;;25.93;50.28;97717.78;8413420;28;20253;-75
2022/06/29 09:54:40;;;;;;;6.00;4.43;;;;;;;25.98;49.96;97714.59;8413391;28;20241;-75
2022/06/29 09:58:46;;;;;;;9.27;4.93;;;;;;;26.26;49.97;97704.34;8413351;28;20531;-75
2022/06/29 10:02:49;;;;;;;6.83;4.50;;;;;;;27.05;47.22;97695.38;8413119;28;20231;-75
2022/06/29 10:06:53;;;;;;;5.93;4.43;;;;;;;26.95;48.17;97697.44;8381535;28;20240;-76
2022/06/29 10:11:01;;;;;;;7.70;4.73;;;;;;;26.40;47.87;97717.88;8380347;28;20416;-75
2022/06/29 10:15:14;;;;;;;8.07;3.73;;;;;;;26.34;48.30;97706.13;8380266;28;20233;-73
2022/06/29 10:19:29;;;;;;;6.97;4.30;;;;;;;26.46;48.08;97696.75;8379842;28;20436;-79
2022/06/29 10:23:47;;;;;;;7.70;4.50;;;;;;;26.77;48.58;97697.75;8379408;28;20237;-74
2022/06/29 10:28:16;;;;;;;6.10;4.43;;;;;;;27.14;47.42;97693.47;8383310;28;20248;-81
2022/06/29 10:32:20;;;;;;;6.07;4.27;;;;;;;27.53;45.73;97695.09;8380002;28;20228;-76
2022/06/29 10:36:22;;;;;;;6.97;4.40;;;;;;;27.27;45.65;97685.75;8379151;28;20234;-78
2022/06/29 10:40:30;;;;;;;8.37;4.60;;;;;;;27.44;46.65;97692.53;8383364;28;20245;-79
2022/06/29 10:45:01;;;;;;;5.83;4.63;;;;;;;27.35;46.35;97688.31;8413426;28;20330;-77
2022/06/29 10:49:20;;;;;;;11.17;5.80;;;;;;;27.40;46.67;97690.44;8418486;28;20225;-79
2022/06/29 10:53:23;;;;;;;9.70;5.07;;;;;;;27.17;47.10;97682.47;8417796;28;20423;-78
2022/06/29 10:57:27;;;;;;;12.47;5.03;;;;;;;27.50;47.46;97681.16;8417959;28;20514;-82
2022/06/29 11:01:30;;;;;;;7.83;4.80;;;;;;;27.63;47.18;97685.03;8418073;28;20228;-79
2022/06/29 11:05:34;;;;;;;9.73;5.20;;;;;;;27.61;46.74;97676.41;8417721;28;20233;-79
2022/06/29 11:15:39;;;;;;;9.83;4.70;;;;;;;28.49;44.88;97671.16;8417597;28;20228;-76
2022/06/29 11:18:32;;;;;;;10.97;4.80;;;;;;;28.77;44.31;97672.06;8417062;28;20237;-76
2022/06/29 11:22:36;;;;;;;11.17;4.90;;;;;;;28.90;43.45;97658.03;8417269;28;20234;-81
2022/06/29 11:26:40;;;;;;;11.20;4.83;;;;;;;29.30;42.15;97657.53;8417227;28;20230;-79
2022/06/29 11:30:58;;;;;;;6.77;5.17;;;;;;;29.84;43.68;97656.03;8417280;28;20400;-77
2022/06/29 11:35:01;;;;;;;8.97;4.70;;;;;;;29.02;42.30;97651.16;8417186;28;20255;-78
2022/06/29 11:39:06;;;;;;;9.53;4.70;;;;;;;29.80;42.37;97652.94;8414369;28;20227;-77
2022/06/29 11:43:10;;;;;;;9.73;4.87;;;;;;;30.23;41.06;97641.16;8416475;28;20227;-78
2022/06/29 11:47:14;;;;;;;10.00;4.57;;;;;;;29.93;41.74;97644.97;8416690;28;20226;-78
2022/06/29 11:51:20;;;;;;;9.20;4.70;;;;;;;30.04;40.70;97643.56;8415272;28;20218;-78
2022/06/29 11:55:43;;;;;;;9.30;4.87;;;;;;;29.24;43.36;97638.66;8415816;28;20249;-76
2022/06/29 11:59:46;;;;;;;11.00;4.93;;;;;;;28.32;45.10;97644.75;8415975;28;20231;-78
2022/06/29 12:03:52;;;;;;;7.67;4.57;;;;;;;28.58;45.41;97641.56;8416830;28;20227;-76
2022/06/29 12:07:55;;;;;;;10.97;5.00;;;;;;;28.23;45.13;97638.72;8416174;28;20238;-77
2022/06/29 12:11:57;;;;;;;6.77;4.70;;;;;;;29.14;44.34;97635.47;8415973;28;20227;-77
2022/06/29 12:16:00;;;;;;;10.97;5.20;;;;;;;28.61;44.19;97630.50;8415737;28;20232;-76
2022/06/29 12:20:06;;;;;;;7.63;4.80;;;;;;;28.89;43.47;97629.72;8415412;28;20230;-77
2022/06/29 12:24:29;;;;;;;8.77;4.77;;;;;;;28.41;45.95;97624.97;8414808;28;20238;-76
2022/06/29 12:28:32;;;;;;;6.93;5.10;;;;;;;28.84;43.74;97632.16;8415357;28;20231;-77
2022/06/29 12:32:35;;;;;;;8.23;4.40;;;;;;;29.04;42.50;97627.81;8414927;28;20230;-77
2022/06/29 12:36:40;;;;;;;8.90;4.30;;;;;;;29.64;41.76;97616.69;8398665;28;20231;-77
2022/06/29 12:40:43;;;;;;;6.17;4.10;;;;;;;29.07;42.88;97617.75;8381969;28;20246;-74
2022/06/29 12:44:45;;;;;;;6.13;4.43;;;;;;;29.36;42.62;97617.59;8401303;28;20310;-78
2022/06/29 12:48:48;;;;;;;10.57;4.70;;;;;;;29.63;41.50;97610.53;8382686;28;20528;-77
2022/06/29 12:52:53;;;;;;;8.27;4.10;;;;;;;30.17;42.53;97605.41;8381809;28;20553;-78
2022/06/29 12:56:55;;;;;;;6.93;4.07;;;;;;;29.93;41.48;97599.59;8381663;28;20417;-77
2022/06/29 13:00:58;;;;;;;9.83;4.20;;;;;;;29.38;41.92;97599.53;8381406;28;20231;-76
2022/06/29 13:05:01;;;;;;;11.77;4.57;;;;;;;29.72;42.69;97605.03;8381206;28;20248;-73
2022/06/29 13:09:05;;;;;;;10.77;4.07;;;;;;;29.78;40.85;97605.09;8381619;28;20258;-78
2022/06/29 13:13:08;;;;;;;6.93;4.37;;;;;;;29.83;41.07;97601.81;8381038;28;20233;-74
2022/06/29 13:17:11;;;;;;;7.13;4.13;;;;;;;29.89;39.64;97606.38;8380942;28;20225;-75
2022/06/29 13:21:14;;;;;;;6.93;3.53;;;;;;;30.71;39.42;97595.63;8380896;28;20239;-74
2022/06/29 13:25:18;;;;;;;7.93;3.80;;;;;;;30.56;39.71;97593.19;8380461;28;20228;-75
2022/06/29 13:29:21;;;;;;;7.47;3.83;;;;;;;30.04;38.80;97589.34;8380566;28;20532;-75
2022/06/29 13:33:24;;;;;;;7.53;3.90;;;;;;;29.20;40.85;97602.69;8380196;28;20242;-74
2022/06/29 13:37:27;;;;;;;4.50;3.60;;;;;;;28.84;41.56;97597.50;8380476;28;20237;-74
2022/06/29 13:41:31;;;;;;;7.30;3.70;;;;;;;28.57;41.57;97591.97;8382356;28;20295;-74
2022/06/29 13:45:34;;;;;;;9.10;3.83;;;;;;;28.87;41.44;97597.13;8413296;28;20236;-74
2022/06/29 13:49:36;;;;;;;7.53;3.60;;;;;;;29.47;41.83;97591.38;8413620;28;20251;-75
2022/06/29 13:53:39;;;;;;;12.00;4.00;;;;;;;29.02;41.02;97594.38;8413079;28;20235;-75
2022/06/29 13:57:43;;;;;;;8.93;3.73;;;;;;;28.89;41.35;97589.75;8413004;28;20249;-74
2022/06/29 14:01:46;;;;;;;8.93;4.03;;;;;;;28.73;41.45;97584.72;8413253;28;20229;-74
2022/06/29 14:05:50;;;;;;;11.80;3.93;;;;;;;28.84;41.64;97578.84;8412880;28;20223;-75
2022/06/29 14:09:53;;;;;;;8.20;4.10;;;;;;;29.42;40.25;97576.78;8413239;28;20230;-74
2022/06/29 14:13:58;;;;;;;6.90;3.93;;;;;;;29.44;40.86;97574.75;8414705;28;20227;-74
2022/06/29 14:18:00;;;;;;;9.30;3.80;;;;;;;29.66;38.77;97565.81;8419731;28;20495;-73
2022/06/29 14:22:05;;;;;;;8.97;3.97;;;;;;;29.34;39.20;97558.28;8419555;28;20287;-73
2022/06/29 14:26:07;;;;;;;7.40;3.73;;;;;;;29.32;40.15;97559.50;8419269;28;20230;-76
2022/06/29 14:30:12;;;;;;;7.30;3.50;;;;;;;29.77;38.24;97554.59;8419337;28;20233;-77
2022/06/29 14:34:15;;;;;;;7.23;3.33;;;;;;;29.58;38.31;97556.94;8418875;28;20230;-75
2022/06/29 14:38:18;;;;;;;8.23;3.50;;;;;;;30.28;38.14;97545.25;8418586;28;20264;-76
2022/06/29 14:42:21;;;;;;;8.07;4.43;;;;;;;30.15;38.46;97552.22;8418596;28;20299;-77
2022/06/29 14:46:26;;;;;;;11.30;4.10;;;;;;;29.04;40.00;97561.16;8418089;28;20233;-76
2022/06/29 14:50:29;;;;;;;10.53;4.00;;;;;;;28.80;40.91;97554.44;8418495;28;20236;-76
2022/06/29 14:54:31;;;;;;;9.43;4.00;;;;;;;28.63;40.37;97553.09;8418562;28;20227;-77
2022/06/29 14:58:34;;;;;;;7.23;3.80;;;;;;;28.53;40.64;97556.09;8418340;28;20254;-76
2022/06/29 15:02:39;;;;;;;8.67;4.17;;;;;;;28.32;41.79;97548.09;8418463;28;20233;-76
2022/06/29 15:06:42;;;;;;;8.87;4.23;;;;;;;28.13;42.12;97552.22;8417149;28;20242;-77
2022/06/29 15:10:45;;;;;;;6.83;4.10;;;;;;;27.92;43.31;97550.38;8407701;28;20225;-76
2022/06/29 15:15:09;;;;;;;11.03;4.50;;;;;;;27.86;43.47;97555.38;8417787;28;20222;-77
2022/06/29 15:19:14;;;;;;;8.23;4.90;;;;;;;27.85;43.67;97551.09;8417894;28;20425;-76
2022/06/29 15:23:17;;;;;;;13.23;4.77;;;;;;;27.93;43.58;97546.66;8417397;28;20230;-77
2022/06/29 15:27:20;;;;;;;8.80;4.37;;;;;;;28.03;42.65;97541.88;8416504;28;20234;-76
2022/06/29 15:31:22;;;;;;;9.17;4.60;;;;;;;28.00;43.24;97537.75;8416550;28;20244;-76
2022/06/29 15:39:47;;;;;;;7.50;3.87;;;;;;;28.01;44.61;97533.25;8416893;28;20240;-78
2022/06/29 15:43:50;;;;;;;8.20;4.30;;;;;;;27.92;44.67;97535.22;8416928;28;20230;-78
2022/06/29 15:47:53;;;;;;;7.57;4.13;;;;;;;27.95;45.18;97534.84;8416964;28;20229;-78
2022/06/29 15:51:57;;;;;;;10.90;4.57;;;;;;;27.98;46.00;97530.97;8416738;28;20232;-78
2022/06/29 15:56:01;;;;;;;12.30;5.03;;;;;;;27.79;46.51;97519.91;8416531;28;20226;-78
2022/06/29 16:00:05;;;;;;;7.37;5.30;;;;;;;27.93;46.63;97512.94;8416149;28;20242;-77
2022/06/29 16:04:07;;;;;;;7.90;5.00;;;;;;;28.01;47.33;97511.97;8416378;28;20389;-77
2022/06/29 16:08:12;;;;;;;8.97;5.80;;;;;;;27.94;47.62;97511.91;8416122;28;20237;-78
2022/06/29 16:12:16;;;;;;;6.70;5.00;;;;;;;27.97;47.22;97511.53;8415160;28;20529;-78
2022/06/29 16:16:24;;;;;;;10.77;5.23;;;;;;;27.96;47.71;97509.88;8415200;28;20263;-77
2022/06/29 16:20:27;;;;;;;8.77;5.30;;;;;;;27.98;48.30;97502.50;8415673;28;20237;-78
2022/06/29 16:24:31;;;;;;;8.10;5.10;;;;;;;28.04;48.50;97509.72;8415584;28;20540;-78
2022/06/29 16:28:34;;;;;;;11.43;5.33;;;;;;;28.01;48.85;97514.63;8415657;28;20431;-81
2022/06/29 16:32:37;;;;;;;8.37;5.00;;;;;;;27.86;48.88;97515.47;8415028;28;20424;-78
2022/06/29 16:36:40;;;;;;;9.33;5.70;;;;;;;28.01;48.35;97514.63;8414003;28;20242;-78
2022/06/29 16:40:44;;;;;;;11.27;5.70;;;;;;;27.95;48.94;97516.22;8415161;28;20320;-81
2022/06/29 16:44:47;;;;;;;11.17;5.40;;;;;;;28.21;47.73;97526.28;8414920;28;20414;-78
2022/06/29 16:48:50;;;;;;;9.60;5.47;;;;;;;28.30;47.40;97526.16;8390272;28;20252;-80
2022/06/29 16:52:53;;;;;;;7.40;5.13;;;;;;;28.21;47.23;97530.78;8399045;28;20233;-80
2022/06/29 16:56:57;;;;;;;8.57;5.00;;;;;;;28.30;47.28;97539.47;8414809;28;20225;-78
2022/06/29 17:01:00;;;;;;;9.27;5.17;;;;;;;28.19;47.74;97522.97;8414867;28;20238;-77
2022/06/29 17:05:04;;;;;;;12.17;5.17;;;;;;;28.39;47.06;97525.84;8414631;28;20232;-75
2022/06/29 17:09:07;;;;;;;5.87;4.70;;;;;;;28.53;47.16;97523.31;8415784;28;20240;-77
2022/06/29 17:13:11;;;;;;;7.50;4.83;;;;;;;27.91;47.87;97516.78;8388140;28;20256;-75
2022/06/29 17:17:14;;;;;;;6.87;5.03;;;;;;;28.15;48.20;97516.41;8414243;28;20234;-75
2022/06/29 17:21:17;;;;;;;7.63;5.00;;;;;;;28.20;47.47;97513.19;8413980;28;20237;-75
2022/06/29 17:25:20;;;;;;;8.43;5.40;;;;;;;28.02;46.83;97509.09;8414137;28;20230;-74
2022/06/29 17:29:25;;;;;;;9.70;5.40;;;;;;;27.63;46.13;97512.97;8412509;28;20245;-75
2022/06/29 17:33:27;;;;;;;7.50;5.37;;;;;;;27.84;45.91;97514.03;8413639;28;20233;-78
2022/06/29 17:37:30;;;;;;;7.93;5.23;;;;;;;27.66;45.28;97507.28;8413688;28;20237;-78
2022/06/29 17:41:33;;;;;;;9.30;5.67;;;;;;;27.28;46.50;97501.31;8413293;28;20235;-78
2022/06/29 17:45:37;;;;;;;9.93;5.40;;;;;;;27.46;46.10;97499.09;8413268;28;20449;-75
2022/06/29 17:49:40;;;;;;;5.37;4.87;;;;;;;27.50;46.33;97494.22;8416371;28;20230;-74
2022/06/29 17:53:43;;;;;;;7.50;4.53;;;;;;;27.47;46.29;97499.91;8420009;28;20229;-73
2022/06/29 17:57:46;;;;;;;6.03;3.93;;;;;;;27.40;46.80;97502.50;8420601;28;20227;-72
2022/06/29 18:01:51;;;;;;;7.27;3.90;;;;;;;27.33;47.54;97498.09;8419729;28;20235;-73
2022/06/29 18:05:54;;;;;;;6.37;4.10;;;;;;;27.22;47.06;97497.53;8419532;28;20230;-74
2022/06/29 18:09:57;;;;;;;7.47;4.30;;;;;;;27.16;47.63;97502.75;8419248;28;20237;-73
2022/06/29 18:14:00;;;;;;;9.63;4.27;;;;;;;27.16;48.05;97506.25;8419269;28;20226;-73
2022/06/29 18:18:04;;;;;;;10.30;4.23;;;;;;;27.19;47.79;97513.00;8419516;28;20234;-73
2022/06/29 18:22:07;;;;;;;9.10;4.03;;;;;;;27.07;48.34;97523.28;8413346;28;20556;-73
2022/06/29 18:26:10;;;;;;;7.10;3.70;;;;;;;27.04;48.71;97529.81;8386174;28;20576;-73
2022/06/29 18:30:14;;;;;;;11.53;4.53;;;;;;;26.75;49.67;97532.44;8385902;28;20243;-73
2022/06/29 18:34:19;;;;;;;10.17;5.20;;;;;;;26.50;51.85;97537.94;8385420;28;20556;-73
2022/06/29 18:38:22;;;;;;;10.60;5.10;;;;;;;26.55;52.30;97542.72;8385011;28;20303;-73
2022/06/29 18:42:25;;;;;;;9.07;5.03;;;;;;;26.59;52.13;97541.34;8385479;28;20427;-73
2022/06/29 18:46:28;;;;;;;6.73;4.20;;;;;;;26.31;52.57;97532.13;8385409;28;20430;-69
2022/06/29 18:50:32;;;;;;;6.17;3.30;;;;;;;26.39;51.60;97538.34;8385357;28;20240;-71
2022/06/29 18:54:35;;;;;;;8.30;3.90;;;;;;;26.51;51.31;97529.78;8385073;28;20241;-73
2022/06/29 18:58:38;;;;;;;10.70;3.70;;;;;;;26.49;51.90;97534.47;8384835;28;20237;-74
2022/06/29 19:02:41;;;;;;;8.90;4.50;;;;;;;26.54;51.88;97533.94;8384535;28;20239;-75
2022/06/29 19:06:45;;;;;;;7.50;3.80;;;;;;;26.50;51.70;97532.63;8384573;28;20347;-74
2022/06/29 19:10:48;;;;;;;5.63;3.40;;;;;;;26.44;52.04;97536.00;8397977;28;20231;-74
2022/06/29 19:14:51;;;;;;;9.33;4.30;;;;;;;26.49;51.77;97534.47;8400986;28;20447;-74
2022/06/29 19:18:54;;;;;;;7.03;3.80;;;;;;;26.45;52.03;97530.53;8411893;28;20233;-76
2022/06/29 19:22:58;;;;;;;10.50;4.43;;;;;;;26.48;51.97;97529.31;8416725;28;20238;-77
2022/06/29 19:27:01;;;;;;;11.10;4.20;;;;;;;26.42;52.32;97545.97;8399533;28;20236;-75